createdAt,value
2022-11-13T00:02:14.689Z,5.30
2022-11-13T00:05:02.458Z,5.27
2022-11-13T00:07:49.869Z,5.03
2022-11-13T00:10:37.483Z,5.13
2022-11-13T00:13:30.313Z,5.47
2022-11-13T00:16:21.194Z,4.87
2022-11-13T00:19:08.222Z,5.13
2022-11-13T00:21:57.518Z,5.10
2022-11-13T00:24:45.341Z,5.17
2022-11-13T00:27:32.609Z,5.63
2022-11-13T00:30:21.670Z,5.57
2022-11-13T00:33:08.684Z,5.40
2022-11-13T00:35:56.332Z,5.63
2022-11-13T00:38:43.578Z,4.63
2022-11-13T00:41:31.517Z,6.93
2022-11-13T00:44:18.873Z,6.90
2022-11-13T00:47:07.673Z,6.57
2022-11-13T00:49:55.145Z,6.53
2022-11-13T00:52:42.895Z,6.50
2022-11-13T00:55:33.239Z,5.97
2022-11-13T00:58:21.257Z,6.90
2022-11-13T01:01:10.717Z,7.20
2022-11-13T01:03:59.892Z,4.93
2022-11-13T01:06:47.880Z,4.70
2022-11-13T01:09:34.867Z,4.47
2022-11-13T01:12:22.584Z,5.10
2022-11-13T01:15:10.979Z,7.47
2022-11-13T01:17:58.456Z,6.37
2022-11-13T01:20:47.021Z,8.43
2022-11-13T01:23:34.982Z,7.57
2022-11-13T01:26:24.978Z,7.13
2022-11-13T01:29:13.243Z,7.03
2022-11-13T01:32:09.286Z,6.47
2022-11-13T01:34:56.770Z,4.73
2022-11-13T01:37:45.201Z,4.50
2022-11-13T01:40:33.021Z,5.20
2022-11-13T01:43:27.559Z,6.03
2022-11-13T01:46:24.353Z,7.17
2022-11-13T01:49:32.110Z,6.10
2022-11-13T01:52:24.826Z,6.63
2022-11-13T01:55:19.210Z,5.87
2022-11-13T01:58:09.983Z,5.10
2022-11-13T02:00:57.116Z,5.00
2022-11-13T02:03:44.074Z,5.40
2022-11-13T02:06:41.660Z,5.33
2022-11-13T02:09:37.482Z,4.77
2022-11-13T02:12:32.560Z,3.33
2022-11-13T02:15:23.850Z,3.77
2022-11-13T02:18:13.881Z,3.83
2022-11-13T02:21:11.412Z,4.73
2022-11-13T02:24:12.127Z,6.67
2022-11-13T02:27:06.006Z,3.67
2022-11-13T02:29:53.227Z,3.40
2022-11-13T02:32:45.401Z,3.60
2022-11-13T02:35:39.082Z,4.63
2022-11-13T02:38:26.493Z,4.17
2022-11-13T02:41:15.492Z,3.83
2022-11-13T02:44:02.613Z,4.10
2022-11-13T02:46:49.731Z,3.00
2022-11-13T02:49:37.450Z,3.17
2022-11-13T02:52:24.959Z,2.73
2022-11-13T02:55:11.977Z,3.20
2022-11-13T02:58:00.558Z,2.83
2022-11-13T03:00:48.252Z,2.70
2022-11-13T03:06:43.080Z,2.83
2022-11-13T03:09:31.099Z,3.17
2022-11-13T03:12:18.379Z,3.10
2022-11-13T03:15:08.367Z,2.93
2022-11-13T03:17:56.408Z,3.70
2022-11-13T03:20:46.080Z,3.17
2022-11-13T03:23:32.776Z,2.67
2022-11-13T03:26:19.993Z,3.20
2022-11-13T03:29:08.779Z,3.37
2022-11-13T03:31:57.478Z,2.70
2022-11-13T03:34:44.722Z,3.70
2022-11-13T03:37:32.264Z,4.13
2022-11-13T03:40:19.967Z,2.87
2022-11-13T03:43:07.291Z,3.23
2022-11-13T03:45:54.715Z,2.80
2022-11-13T03:48:43.227Z,3.63
2022-11-13T03:51:30.526Z,4.47
2022-11-13T03:54:17.463Z,3.83
2022-11-13T03:57:05.588Z,3.33
2022-11-13T03:59:52.918Z,3.70
2022-11-13T04:02:41.248Z,2.50
2022-11-13T04:05:29.428Z,2.50
2022-11-13T04:08:18.292Z,3.07
2022-11-13T04:11:10.596Z,4.00
2022-11-13T04:13:58.366Z,2.47
2022-11-13T04:16:45.637Z,4.00
2022-11-13T04:19:32.323Z,3.30
2022-11-13T04:22:21.689Z,3.23
2022-11-13T04:25:10.082Z,3.50
2022-11-13T04:27:56.975Z,3.40
2022-11-13T04:30:44.644Z,2.33
2022-11-13T04:33:31.811Z,3.00
2022-11-13T04:36:19.275Z,3.33
2022-11-13T04:39:08.027Z,4.43
2022-11-13T04:42:13.669Z,2.33
2022-11-13T04:45:00.406Z,3.27
2022-11-13T04:47:48.575Z,2.50
2022-11-13T04:50:35.515Z,2.90
2022-11-13T04:53:23.086Z,2.83
2022-11-13T04:56:11.529Z,2.83
2022-11-13T04:58:59.292Z,2.90
2022-11-13T05:01:46.063Z,2.87
2022-11-13T05:04:33.672Z,2.53
2022-11-13T05:07:21.023Z,3.00
2022-11-13T05:10:08.219Z,3.00
2022-11-13T05:12:58.984Z,2.83
2022-11-13T05:15:46.911Z,3.27
2022-11-13T05:18:35.041Z,2.57
2022-11-13T05:21:22.599Z,3.47
2022-11-13T05:24:12.906Z,2.90
2022-11-13T05:27:00.352Z,2.30
2022-11-13T05:29:48.856Z,1.50
2022-11-13T05:32:36.241Z,1.57
2022-11-13T05:35:23.657Z,1.40
2022-11-13T05:38:10.819Z,2.20
2022-11-13T05:41:04.372Z,2.63
2022-11-13T05:43:59.045Z,2.70
2022-11-13T05:46:48.309Z,3.27
2022-11-13T05:49:35.142Z,3.40
2022-11-13T05:52:22.835Z,3.33
2022-11-13T05:55:11.150Z,3.60
2022-11-13T05:58:00.049Z,3.10
2022-11-13T06:00:47.631Z,2.67
2022-11-13T06:03:36.038Z,1.90
2022-11-13T06:06:26.149Z,1.50
2022-11-13T06:09:17.381Z,1.93
2022-11-13T06:12:03.996Z,3.20
2022-11-13T06:14:51.458Z,3.30
2022-11-13T06:17:38.349Z,2.93
2022-11-13T06:20:27.377Z,3.90
2022-11-13T06:23:14.158Z,3.07
2022-11-13T06:26:06.329Z,3.20
2022-11-13T06:28:54.296Z,3.27
2022-11-13T06:31:41.477Z,2.20
2022-11-13T06:34:28.325Z,2.20
2022-11-13T06:37:17.187Z,4.13
2022-11-13T06:40:04.596Z,3.70
2022-11-13T06:42:52.683Z,3.20
2022-11-13T06:45:39.401Z,3.87
2022-11-13T06:48:27.462Z,4.20
2022-11-13T06:51:18.722Z,2.97
2022-11-13T06:54:07.711Z,4.43
2022-11-13T06:56:56.783Z,4.50
2022-11-13T06:59:45.062Z,3.70
2022-11-13T07:02:31.772Z,3.90
2022-11-13T07:05:22.637Z,3.93
2022-11-13T07:08:09.714Z,3.33
2022-11-13T07:11:01.016Z,3.70
2022-11-13T07:13:48.626Z,3.93
2022-11-13T07:17:04.184Z,4.23
2022-11-13T07:19:43.632Z,3.47
2022-11-13T07:22:31.010Z,3.37
2022-11-13T07:25:18.255Z,4.90
2022-11-13T07:28:07.089Z,3.27
2022-11-13T07:30:54.677Z,4.13
2022-11-13T07:33:41.754Z,3.80
2022-11-13T07:36:29.567Z,2.70
2022-11-13T07:39:16.496Z,2.53
2022-11-13T07:42:04.140Z,2.30
2022-11-13T07:44:55.073Z,5.17
2022-11-13T07:47:43.596Z,6.20
2022-11-13T07:50:35.544Z,8.73
2022-11-13T07:53:24.875Z,11.10
2022-11-13T07:56:12.216Z,5.23
2022-11-13T07:59:00.025Z,4.73
2022-11-13T08:01:49.406Z,5.27
2022-11-13T08:04:36.704Z,4.70
2022-11-13T08:07:23.781Z,5.40
2022-11-13T08:48:38.319Z,3.63
2022-11-13T09:12:33.271Z,3.40
2022-11-13T10:05:33.735Z,6.80
2022-11-13T10:23:12.345Z,6.20
2022-11-13T10:26:15.323Z,4.90
2022-11-13T10:29:12.060Z,6.03
2022-11-13T10:31:59.391Z,5.83
2022-11-13T10:34:53.401Z,5.10
2022-11-13T10:38:08.155Z,4.47
2022-11-13T10:41:10.540Z,5.10
2022-11-13T10:43:59.980Z,4.83
2022-11-13T10:46:47.318Z,5.53
2022-11-13T10:49:35.022Z,4.60
2022-11-13T10:52:26.155Z,5.00
2022-11-13T10:55:28.878Z,4.70
2022-11-13T10:58:19.644Z,5.30
2022-11-13T11:01:17.444Z,4.00
2022-11-13T11:04:06.120Z,5.00
2022-11-13T11:10:00.944Z,5.17
2022-11-13T11:12:56.517Z,4.93
2022-11-13T11:15:50.989Z,5.13
2022-11-13T11:18:45.522Z,7.60
2022-11-13T11:21:38.096Z,4.87
2022-11-13T11:24:35.198Z,4.93
2022-11-13T11:27:29.359Z,4.60
2022-11-13T11:30:23.012Z,4.40
2022-11-13T11:33:21.156Z,5.83
2022-11-13T11:36:22.795Z,5.20
2022-11-13T11:39:32.917Z,5.07
2022-11-13T11:42:31.227Z,5.07
2022-11-13T11:45:28.032Z,4.17
2022-11-13T11:48:19.136Z,4.22
2022-11-13T11:51:17.997Z,4.35
2022-11-13T11:54:24.339Z,4.63
2022-11-13T11:57:36.854Z,4.22
2022-11-13T12:00:29.497Z,4.97
2022-11-13T12:03:44.465Z,5.82
2022-11-13T12:06:50.451Z,4.68
2022-11-13T12:09:47.654Z,8.05
2022-11-13T12:12:56.887Z,7.72
2022-11-13T12:15:57.613Z,5.63
2022-11-13T12:19:00.743Z,4.82
2022-11-13T12:22:01.377Z,5.72
2022-11-13T12:25:10.198Z,5.03
2022-11-13T12:28:07.299Z,4.55
2022-11-13T12:31:10.107Z,5.25
2022-11-13T12:34:11.804Z,4.45
2022-11-13T12:37:00.551Z,4.90
2022-11-13T12:39:58.160Z,4.68
2022-11-13T12:42:55.527Z,4.70
2022-11-13T12:45:53.338Z,4.70
2022-11-13T12:48:44.171Z,5.80
2022-11-13T12:51:41.910Z,6.80
2022-11-13T12:54:31.455Z,7.33
2022-11-13T12:57:30.484Z,5.20
2022-11-13T13:00:28.408Z,5.37
2022-11-13T13:03:47.669Z,5.80
2022-11-13T13:07:04.141Z,4.80
2022-11-13T13:10:11.199Z,4.97
2022-11-13T13:13:09.740Z,5.40
2022-11-13T13:16:02.811Z,5.67
2022-11-13T13:18:49.811Z,6.80
2022-11-13T13:21:46.019Z,5.40
2022-11-13T13:24:36.131Z,5.27
2022-11-13T13:27:26.085Z,7.30
2022-11-13T13:30:23.063Z,5.87
2022-11-13T13:33:24.193Z,18.83
2022-11-13T13:36:26.581Z,5.93
2022-11-13T13:39:44.147Z,6.90
2022-11-13T13:43:06.129Z,19.30
2022-11-13T13:46:11.645Z,5.40
2022-11-13T13:49:12.877Z,13.97
2022-11-13T13:52:00.359Z,10.33
2022-11-13T13:54:50.198Z,4.63
2022-11-13T13:57:45.087Z,7.60
2022-11-13T14:00:33.652Z,8.70
2022-11-13T14:03:25.496Z,5.70
2022-11-13T14:06:24.147Z,6.47
2022-11-13T14:09:18.280Z,5.60
2022-11-13T14:12:18.443Z,5.07
2022-11-13T14:15:07.246Z,4.73
2022-11-13T14:18:06.472Z,4.17
2022-11-13T14:20:56.654Z,4.47
2022-11-13T14:23:48.650Z,3.97
2022-11-13T14:26:35.996Z,3.73
2022-11-13T14:29:37.723Z,4.40
2022-11-13T14:32:29.339Z,4.10
2022-11-13T14:35:22.740Z,4.20
2022-11-13T14:38:22.811Z,4.43
2022-11-13T14:41:22.571Z,4.20
2022-11-13T14:44:13.379Z,3.43
2022-11-13T14:47:05.154Z,3.33
2022-11-13T14:49:52.985Z,4.10
2022-11-13T14:52:40.025Z,3.67
2022-11-13T14:55:30.919Z,3.30
2022-11-13T14:58:30.050Z,4.30
2022-11-13T15:01:21.797Z,4.10
2022-11-13T15:04:10.277Z,3.60
2022-11-13T15:07:03.090Z,3.90
2022-11-13T15:09:51.285Z,18.50
2022-11-13T15:12:38.748Z,7.97
2022-11-13T15:15:31.896Z,5.20
2022-11-13T15:18:21.007Z,4.73
2022-11-13T15:21:10.657Z,4.47
2022-11-13T15:24:01.739Z,4.93
2022-11-13T15:30:01.492Z,5.27
2022-11-13T15:32:54.021Z,4.13
2022-11-13T15:35:44.106Z,4.20
2022-11-13T15:38:32.801Z,4.17
2022-11-13T15:41:25.408Z,3.73
2022-11-13T15:44:15.728Z,3.70
2022-11-13T15:47:02.479Z,6.17
2022-11-13T15:50:09.705Z,5.63
2022-11-13T15:53:02.335Z,5.13
2022-11-13T15:55:53.800Z,4.97
2022-11-13T15:58:41.762Z,5.10
2022-11-13T16:01:29.171Z,5.00
2022-11-13T16:04:16.549Z,14.70
2022-11-13T16:07:03.841Z,7.40
2022-11-13T16:09:50.590Z,14.97
2022-11-13T16:12:39.099Z,15.83
2022-11-13T16:15:26.216Z,9.33
2022-11-13T16:18:24.047Z,9.67
2022-11-13T16:21:13.986Z,12.03
2022-11-13T16:24:01.795Z,9.83
2022-11-13T16:26:55.239Z,9.40
2022-11-13T16:29:44.553Z,10.73
2022-11-13T16:32:31.881Z,14.40
2022-11-13T16:35:21.231Z,17.00
2022-11-13T16:38:13.906Z,18.67
2022-11-13T16:41:00.686Z,27.07
2022-11-13T16:43:48.158Z,21.70
2022-11-13T16:46:41.685Z,15.50
2022-11-13T16:49:29.554Z,15.07
2022-11-13T16:52:17.008Z,23.93
2022-11-13T16:55:06.731Z,40.27
2022-11-13T16:57:54.382Z,27.43
2022-11-13T17:00:42.590Z,23.77
2022-11-13T17:03:31.619Z,29.53
2022-11-13T17:06:24.421Z,16.57
2022-11-13T17:09:13.013Z,14.83
2022-11-13T17:11:59.696Z,19.70
2022-11-13T17:14:48.335Z,19.30
2022-11-13T17:17:35.425Z,13.33
2022-11-13T17:20:25.385Z,17.03
2022-11-13T17:23:16.241Z,21.93
2022-11-13T17:26:04.342Z,17.80
2022-11-13T17:28:51.742Z,14.50
2022-11-13T17:31:39.441Z,11.47
2022-11-13T17:34:26.958Z,11.73
2022-11-13T17:37:15.808Z,10.30
2022-11-13T17:40:02.588Z,11.47
2022-11-13T17:42:51.595Z,11.50
2022-11-13T17:45:41.071Z,11.70
2022-11-13T17:48:27.827Z,11.10
2022-11-13T17:51:16.761Z,11.23
2022-11-13T17:54:05.431Z,9.50
2022-11-13T17:56:52.345Z,9.70
2022-11-13T17:59:40.727Z,10.27
2022-11-13T18:02:28.958Z,10.77
2022-11-13T18:05:16.437Z,17.43
2022-11-13T18:08:03.527Z,16.00
2022-11-13T18:10:51.945Z,13.60
2022-11-13T18:13:39.546Z,21.30
2022-11-13T18:16:31.478Z,14.33
2022-11-13T18:19:18.412Z,16.97
2022-11-13T18:22:05.811Z,14.93
2022-11-13T18:24:52.870Z,18.20
2022-11-13T18:27:41.692Z,15.23
2022-11-13T18:30:29.688Z,16.03
2022-11-13T18:33:16.976Z,13.50
2022-11-13T18:36:04.863Z,15.43
2022-11-13T18:38:52.056Z,16.33
2022-11-13T18:41:39.410Z,28.40
2022-11-13T18:44:27.309Z,22.43
2022-11-13T18:47:18.359Z,23.23
2022-11-13T18:50:13.886Z,18.67
2022-11-13T18:53:01.274Z,18.17
2022-11-13T18:55:47.878Z,20.77
2022-11-13T18:58:38.143Z,21.17
2022-11-13T19:01:30.990Z,18.60
2022-11-13T19:04:23.372Z,14.90
2022-11-13T19:07:16.444Z,16.40
2022-11-13T19:10:03.715Z,14.37
2022-11-13T19:12:51.157Z,17.63
2022-11-13T19:15:41.817Z,15.93
2022-11-13T19:18:30.692Z,17.60
2022-11-13T19:21:21.828Z,20.90
2022-11-13T19:24:11.805Z,24.73
2022-11-13T19:26:58.957Z,23.07
2022-11-13T19:29:45.860Z,22.03
2022-11-13T19:32:33.395Z,19.43
2022-11-13T19:35:22.330Z,17.90
2022-11-13T19:38:09.419Z,19.80
2022-11-13T19:40:56.121Z,23.97
2022-11-13T19:43:45.304Z,22.93
2022-11-13T19:46:34.051Z,18.23
2022-11-13T19:49:20.993Z,15.30
2022-11-13T19:52:10.338Z,11.43
2022-11-13T19:54:57.096Z,10.97
2022-11-13T19:57:46.154Z,10.67
2022-11-13T20:00:33.746Z,10.73
2022-11-13T20:03:20.639Z,14.27
2022-11-13T20:06:15.770Z,10.83
2022-11-13T20:09:05.040Z,18.50
2022-11-13T20:11:51.957Z,11.20
2022-11-13T20:14:39.014Z,26.37
2022-11-13T20:17:26.329Z,22.60
2022-11-13T20:20:13.374Z,23.43
2022-11-13T20:23:01.637Z,26.50
2022-11-13T20:25:55.563Z,18.90
2022-11-13T20:28:43.118Z,13.87
2022-11-13T20:31:30.243Z,15.03
2022-11-13T20:34:17.543Z,15.83
2022-11-13T20:37:04.308Z,14.07
2022-11-13T20:39:52.513Z,14.53
2022-11-13T20:42:40.735Z,18.90
2022-11-13T20:45:27.444Z,17.30
2022-11-13T20:48:17.666Z,20.83
2022-11-13T20:51:12.006Z,16.27
2022-11-13T20:53:59.864Z,20.50
2022-11-13T20:56:46.600Z,20.60
2022-11-13T20:59:35.178Z,19.93
2022-11-13T21:02:22.025Z,16.43
2022-11-13T21:05:10.308Z,16.43
2022-11-13T21:07:57.012Z,14.63
2022-11-13T21:10:44.292Z,12.43
2022-11-13T21:13:32.003Z,13.53
2022-11-13T21:16:21.545Z,12.53
2022-11-13T21:19:10.607Z,12.50
2022-11-13T21:21:58.411Z,19.10
2022-11-13T21:24:45.489Z,16.43
2022-11-13T21:27:32.702Z,12.37
2022-11-13T21:30:21.615Z,11.53
2022-11-13T21:33:10.623Z,12.53
2022-11-13T21:35:58.150Z,10.97
2022-11-13T21:38:47.823Z,12.47
2022-11-13T21:41:34.699Z,18.37
2022-11-13T21:44:21.914Z,18.43
2022-11-13T22:57:40.674Z,7.23
2022-11-13T23:00:28.189Z,8.03
2022-11-13T23:03:15.435Z,7.80
2022-11-13T23:06:04.095Z,7.90
2022-11-13T23:08:52.408Z,6.67
2022-11-13T23:11:42.704Z,8.17
2022-11-13T23:14:31.199Z,8.10
2022-11-13T23:17:18.848Z,7.50
2022-11-13T23:20:07.072Z,7.73
2022-11-13T23:22:54.329Z,7.27
2022-11-13T23:25:42.149Z,7.23
2022-11-13T23:28:29.565Z,8.47
2022-11-13T23:31:18.503Z,8.23
2022-11-13T23:34:06.949Z,8.83
2022-11-13T23:36:53.842Z,8.63
2022-11-13T23:39:41.021Z,9.07
2022-11-13T23:42:46.084Z,8.87
2022-11-13T23:45:36.680Z,8.50
2022-11-13T23:48:25.367Z,8.43
2022-11-13T23:51:12.349Z,8.20
2022-11-13T23:53:59.933Z,8.37
2022-11-13T23:56:46.791Z,7.53
2022-11-13T23:59:34.205Z,8.33
